sensor_id;sensor_type;location;lat;lon;timestamp;P1;durP1;ratioP1;P2;durP2;ratioP2
55469;SDS011;41334;47.872;16.384;2023-07-24T00:02:02;4.72;;;2.75;;
55469;SDS011;41334;47.872;16.384;2023-07-24T00:07:05;6.00;;;3.22;;
55469;SDS011;41334;47.872;16.384;2023-07-24T00:12:07;5.72;;;3.10;;
55469;SDS011;41334;47.872;16.384;2023-07-24T00:17:09;4.53;;;2.28;;
55469;SDS011;41334;47.872;16.384;2023-07-24T00:22:11;5.50;;;3.33;;
55469;SDS011;41334;47.872;16.384;2023-07-24T00:27:13;5.45;;;3.22;;
55469;SDS011;41334;47.872;16.384;2023-07-24T00:32:15;6.28;;;3.38;;
55469;SDS011;41334;47.872;16.384;2023-07-24T00:37:17;8.57;;;3.25;;
55469;SDS011;41334;47.872;16.384;2023-07-24T00:42:20;5.18;;;2.63;;
55469;SDS011;41334;47.872;16.384;2023-07-24T00:47:22;6.03;;;3.20;;
55469;SDS011;41334;47.872;16.384;2023-07-24T00:52:24;6.90;;;3.05;;
55469;SDS011;41334;47.872;16.384;2023-07-24T00:57:26;4.55;;;2.70;;
55469;SDS011;41334;47.872;16.384;2023-07-24T01:02:29;5.97;;;2.60;;
55469;SDS011;41334;47.872;16.384;2023-07-24T01:07:32;6.20;;;2.88;;
55469;SDS011;41334;47.872;16.384;2023-07-24T01:13:22;5.63;;;3.10;;
55469;SDS011;41334;47.872;16.384;2023-07-24T01:18:15;5.18;;;2.97;;
55469;SDS011;41334;47.872;16.384;2023-07-24T01:23:37;4.93;;;2.90;;
55469;SDS011;41334;47.872;16.384;2023-07-24T01:28:52;7.93;;;3.10;;
55469;SDS011;41334;47.872;16.384;2023-07-24T01:33:54;6.72;;;3.35;;
55469;SDS011;41334;47.872;16.384;2023-07-24T01:38:55;5.15;;;3.22;;
55469;SDS011;41334;47.872;16.384;2023-07-24T01:44:01;5.80;;;3.25;;
55469;SDS011;41334;47.872;16.384;2023-07-24T01:49:03;6.18;;;3.17;;
55469;SDS011;41334;47.872;16.384;2023-07-24T01:54:05;6.13;;;3.22;;
55469;SDS011;41334;47.872;16.384;2023-07-24T01:59:07;6.78;;;3.60;;
55469;SDS011;41334;47.872;16.384;2023-07-24T02:04:08;6.60;;;3.75;;
55469;SDS011;41334;47.872;16.384;2023-07-24T02:09:11;5.78;;;3.38;;
55469;SDS011;41334;47.872;16.384;2023-07-24T02:14:13;10.32;;;3.65;;
55469;SDS011;41334;47.872;16.384;2023-07-24T02:19:17;6.85;;;3.47;;
55469;SDS011;41334;47.872;16.384;2023-07-24T02:24:19;6.70;;;3.40;;
55469;SDS011;41334;47.872;16.384;2023-07-24T02:29:21;6.28;;;3.50;;
55469;SDS011;41334;47.872;16.384;2023-07-24T02:34:24;6.88;;;3.03;;
55469;SDS011;41334;47.872;16.384;2023-07-24T02:39:28;6.70;;;3.72;;
55469;SDS011;41334;47.872;16.384;2023-07-24T02:44:30;6.45;;;3.15;;
55469;SDS011;41334;47.872;16.384;2023-07-24T02:49:32;6.15;;;3.47;;
55469;SDS011;41334;47.872;16.384;2023-07-24T02:54:34;9.65;;;3.25;;
55469;SDS011;41334;47.872;16.384;2023-07-24T02:59:36;6.43;;;3.33;;
55469;SDS011;41334;47.872;16.384;2023-07-24T03:04:38;5.03;;;3.30;;
55469;SDS011;41334;47.872;16.384;2023-07-24T03:09:40;5.35;;;2.95;;
55469;SDS011;41334;47.872;16.384;2023-07-24T03:14:42;5.05;;;2.90;;
55469;SDS011;41334;47.872;16.384;2023-07-24T03:19:44;5.65;;;3.15;;
55469;SDS011;41334;47.872;16.384;2023-07-24T03:24:46;6.32;;;3.10;;
55469;SDS011;41334;47.872;16.384;2023-07-24T03:29:48;6.90;;;3.28;;
55469;SDS011;41334;47.872;16.384;2023-07-24T03:34:50;6.22;;;3.58;;
55469;SDS011;41334;47.872;16.384;2023-07-24T03:39:52;8.95;;;3.28;;
55469;SDS011;41334;47.872;16.384;2023-07-24T03:44:55;6.57;;;3.22;;
55469;SDS011;41334;47.872;16.384;2023-07-24T03:49:57;8.60;;;3.47;;
55469;SDS011;41334;47.872;16.384;2023-07-24T03:54:59;6.90;;;3.65;;
55469;SDS011;41334;47.872;16.384;2023-07-24T04:00:01;4.93;;;2.92;;
55469;SDS011;41334;47.872;16.384;2023-07-24T04:05:12;6.78;;;3.22;;
55469;SDS011;41334;47.872;16.384;2023-07-24T04:10:14;5.93;;;3.08;;
55469;SDS011;41334;47.872;16.384;2023-07-24T04:15:16;5.47;;;2.92;;
55469;SDS011;41334;47.872;16.384;2023-07-24T04:20:18;6.55;;;3.53;;
55469;SDS011;41334;47.872;16.384;2023-07-24T04:25:20;5.03;;;2.45;;
55469;SDS011;41334;47.872;16.384;2023-07-24T04:30:22;6.95;;;3.10;;
55469;SDS011;41334;47.872;16.384;2023-07-24T04:35:24;5.70;;;3.13;;
55469;SDS011;41334;47.872;16.384;2023-07-24T04:40:25;5.63;;;3.22;;
55469;SDS011;41334;47.872;16.384;2023-07-24T04:45:27;7.60;;;3.40;;
55469;SDS011;41334;47.872;16.384;2023-07-24T04:50:29;4.88;;;2.92;;
55469;SDS011;41334;47.872;16.384;2023-07-24T04:55:31;8.02;;;3.28;;
55469;SDS011;41334;47.872;16.384;2023-07-24T05:00:33;9.27;;;3.53;;
55469;SDS011;41334;47.872;16.384;2023-07-24T05:05:35;5.22;;;2.85;;
55469;SDS011;41334;47.872;16.384;2023-07-24T05:10:37;6.10;;;2.88;;
55469;SDS011;41334;47.872;16.384;2023-07-24T05:15:39;7.00;;;3.28;;
55469;SDS011;41334;47.872;16.384;2023-07-24T05:20:47;11.40;;;3.67;;
55469;SDS011;41334;47.872;16.384;2023-07-24T05:25:56;8.73;;;3.25;;
55469;SDS011;41334;47.872;16.384;2023-07-24T05:31:00;6.43;;;3.13;;
55469;SDS011;41334;47.872;16.384;2023-07-24T05:36:04;6.82;;;4.07;;
55469;SDS011;41334;47.872;16.384;2023-07-24T05:41:06;6.63;;;3.58;;
55469;SDS011;41334;47.872;16.384;2023-07-24T05:46:08;5.85;;;3.53;;
55469;SDS011;41334;47.872;16.384;2023-07-24T05:51:10;9.93;;;3.60;;
55469;SDS011;41334;47.872;16.384;2023-07-24T05:56:12;6.93;;;3.65;;
55469;SDS011;41334;47.872;16.384;2023-07-24T06:01:14;8.88;;;3.35;;
55469;SDS011;41334;47.872;16.384;2023-07-24T06:06:16;6.50;;;3.20;;
55469;SDS011;41334;47.872;16.384;2023-07-24T06:11:18;6.07;;;3.58;;
55469;SDS011;41334;47.872;16.384;2023-07-24T06:16:20;5.45;;;3.28;;
55469;SDS011;41334;47.872;16.384;2023-07-24T06:21:22;6.85;;;3.35;;
55469;SDS011;41334;47.872;16.384;2023-07-24T06:26:24;6.45;;;3.30;;
55469;SDS011;41334;47.872;16.384;2023-07-24T06:31:26;4.55;;;2.92;;
55469;SDS011;41334;47.872;16.384;2023-07-24T06:36:28;8.27;;;3.72;;
55469;SDS011;41334;47.872;16.384;2023-07-24T06:41:31;5.07;;;3.25;;
55469;SDS011;41334;47.872;16.384;2023-07-24T06:46:33;6.20;;;3.60;;
55469;SDS011;41334;47.872;16.384;2023-07-24T06:51:35;7.28;;;3.67;;
55469;SDS011;41334;47.872;16.384;2023-07-24T06:56:37;6.90;;;3.75;;
55469;SDS011;41334;47.872;16.384;2023-07-24T07:01:39;6.40;;;3.72;;
55469;SDS011;41334;47.872;16.384;2023-07-24T07:06:41;5.88;;;3.83;;
55469;SDS011;41334;47.872;16.384;2023-07-24T07:11:43;7.60;;;3.85;;
55469;SDS011;41334;47.872;16.384;2023-07-24T07:16:46;5.55;;;3.17;;
55469;SDS011;41334;47.872;16.384;2023-07-24T07:21:49;13.13;;;3.88;;
55469;SDS011;41334;47.872;16.384;2023-07-24T07:26:51;6.25;;;3.22;;
55469;SDS011;41334;47.872;16.384;2023-07-24T07:31:53;4.50;;;3.20;;
55469;SDS011;41334;47.872;16.384;2023-07-24T07:36:55;6.38;;;3.50;;
55469;SDS011;41334;47.872;16.384;2023-07-24T07:41:57;8.15;;;4.05;;
55469;SDS011;41334;47.872;16.384;2023-07-24T07:47:16;5.67;;;3.60;;
55469;SDS011;41334;47.872;16.384;2023-07-24T07:52:18;8.40;;;3.83;;
55469;SDS011;41334;47.872;16.384;2023-07-24T07:57:21;7.43;;;3.78;;
55469;SDS011;41334;47.872;16.384;2023-07-24T08:02:23;5.78;;;3.47;;
55469;SDS011;41334;47.872;16.384;2023-07-24T08:07:25;6.03;;;3.28;;
55469;SDS011;41334;47.872;16.384;2023-07-24T08:12:27;6.07;;;3.40;;
55469;SDS011;41334;47.872;16.384;2023-07-24T08:17:29;6.20;;;3.17;;
55469;SDS011;41334;47.872;16.384;2023-07-24T08:22:33;5.55;;;3.00;;
55469;SDS011;41334;47.872;16.384;2023-07-24T08:27:35;7.03;;;3.30;;
55469;SDS011;41334;47.872;16.384;2023-07-24T08:32:57;5.15;;;3.08;;
55469;SDS011;41334;47.872;16.384;2023-07-24T08:37:59;9.93;;;4.20;;
55469;SDS011;41334;47.872;16.384;2023-07-24T08:43:01;6.57;;;3.50;;
55469;SDS011;41334;47.872;16.384;2023-07-24T08:48:03;7.80;;;3.55;;
55469;SDS011;41334;47.872;16.384;2023-07-24T08:53:06;6.60;;;3.40;;
55469;SDS011;41334;47.872;16.384;2023-07-24T08:58:08;6.50;;;3.80;;
55469;SDS011;41334;47.872;16.384;2023-07-24T09:03:10;8.15;;;2.92;;
55469;SDS011;41334;47.872;16.384;2023-07-24T09:08:12;5.78;;;3.53;;
55469;SDS011;41334;47.872;16.384;2023-07-24T09:13:14;7.90;;;3.53;;
55469;SDS011;41334;47.872;16.384;2023-07-24T09:18:17;7.03;;;3.50;;
55469;SDS011;41334;47.872;16.384;2023-07-24T09:23:26;6.63;;;3.58;;
55469;SDS011;41334;47.872;16.384;2023-07-24T09:28:29;6.50;;;3.38;;
55469;SDS011;41334;47.872;16.384;2023-07-24T09:33:37;7.93;;;3.78;;
55469;SDS011;41334;47.872;16.384;2023-07-24T09:38:42;5.93;;;3.00;;
55469;SDS011;41334;47.872;16.384;2023-07-24T09:43:44;7.10;;;3.60;;
55469;SDS011;41334;47.872;16.384;2023-07-24T09:48:46;6.85;;;3.88;;
55469;SDS011;41334;47.872;16.384;2023-07-24T09:59:15;5.13;;;3.40;;
55469;SDS011;41334;47.872;16.384;2023-07-24T10:04:18;7.10;;;3.70;;
55469;SDS011;41334;47.872;16.384;2023-07-24T10:09:21;5.90;;;3.67;;
55469;SDS011;41334;47.872;16.384;2023-07-24T10:14:28;7.75;;;4.00;;
55469;SDS011;41334;47.872;16.384;2023-07-24T10:19:41;7.13;;;4.15;;
55469;SDS011;41334;47.872;16.384;2023-07-24T10:24:47;8.23;;;4.57;;
55469;SDS011;41334;47.872;16.384;2023-07-24T10:29:59;6.57;;;4.18;;
55469;SDS011;41334;47.872;16.384;2023-07-24T10:35:19;8.02;;;4.30;;
55469;SDS011;41334;47.872;16.384;2023-07-24T10:40:24;6.85;;;3.97;;
55469;SDS011;41334;47.872;16.384;2023-07-24T10:45:38;6.00;;;4.63;;
55469;SDS011;41334;47.872;16.384;2023-07-24T10:50:51;11.40;;;4.43;;
55469;SDS011;41334;47.872;16.384;2023-07-24T10:55:55;6.38;;;4.50;;
55469;SDS011;41334;47.872;16.384;2023-07-24T11:00:58;7.43;;;4.53;;
55469;SDS011;41334;47.872;16.384;2023-07-24T11:06:00;7.97;;;4.45;;
55469;SDS011;41334;47.872;16.384;2023-07-24T11:11:03;9.02;;;4.55;;
55469;SDS011;41334;47.872;16.384;2023-07-24T11:16:06;8.55;;;4.90;;
55469;SDS011;41334;47.872;16.384;2023-07-24T11:21:11;9.55;;;4.97;;
55469;SDS011;41334;47.872;16.384;2023-07-24T11:26:13;9.05;;;4.85;;
55469;SDS011;41334;47.872;16.384;2023-07-24T11:31:16;9.95;;;5.43;;
55469;SDS011;41334;47.872;16.384;2023-07-24T11:36:21;7.57;;;5.35;;
55469;SDS011;41334;47.872;16.384;2023-07-24T11:41:25;9.18;;;5.45;;
55469;SDS011;41334;47.872;16.384;2023-07-24T11:46:27;8.98;;;5.68;;
55469;SDS011;41334;47.872;16.384;2023-07-24T11:51:31;7.20;;;5.00;;
55469;SDS011;41334;47.872;16.384;2023-07-24T11:56:35;8.07;;;5.57;;
55469;SDS011;41334;47.872;16.384;2023-07-24T12:01:37;7.00;;;4.97;;
55469;SDS011;41334;47.872;16.384;2023-07-24T12:12:10;7.18;;;4.72;;
55469;SDS011;41334;47.872;16.384;2023-07-24T12:17:17;6.80;;;5.20;;
55469;SDS011;41334;47.872;16.384;2023-07-24T12:22:21;9.68;;;5.00;;
55469;SDS011;41334;47.872;16.384;2023-07-24T12:27:24;7.95;;;5.57;;
55469;SDS011;41334;47.872;16.384;2023-07-24T12:32:26;8.27;;;5.60;;
55469;SDS011;41334;47.872;16.384;2023-07-24T12:37:28;7.78;;;5.13;;
55469;SDS011;41334;47.872;16.384;2023-07-24T12:42:30;17.17;;;5.38;;
55469;SDS011;41334;47.872;16.384;2023-07-24T12:47:32;7.00;;;5.35;;
55469;SDS011;41334;47.872;16.384;2023-07-24T12:52:34;15.50;;;5.88;;
55469;SDS011;41334;47.872;16.384;2023-07-24T12:57:36;10.25;;;5.80;;
55469;SDS011;41334;47.872;16.384;2023-07-24T13:02:38;9.38;;;5.13;;
55469;SDS011;41334;47.872;16.384;2023-07-24T13:07:40;10.60;;;5.30;;
55469;SDS011;41334;47.872;16.384;2023-07-24T13:12:42;10.20;;;5.90;;
55469;SDS011;41334;47.872;16.384;2023-07-24T13:17:44;8.35;;;5.93;;
55469;SDS011;41334;47.872;16.384;2023-07-24T13:22:45;10.60;;;6.10;;
55469;SDS011;41334;47.872;16.384;2023-07-24T13:27:50;9.07;;;5.78;;
55469;SDS011;41334;47.872;16.384;2023-07-24T13:32:52;11.80;;;6.15;;
55469;SDS011;41334;47.872;16.384;2023-07-24T13:37:54;7.88;;;5.15;;
55469;SDS011;41334;47.872;16.384;2023-07-24T13:42:55;9.50;;;6.05;;
55469;SDS011;41334;47.872;16.384;2023-07-24T13:47:57;8.13;;;5.25;;
55469;SDS011;41334;47.872;16.384;2023-07-24T13:53:04;9.15;;;5.68;;
55469;SDS011;41334;47.872;16.384;2023-07-24T13:58:07;9.57;;;5.72;;
55469;SDS011;41334;47.872;16.384;2023-07-24T14:03:09;8.32;;;5.75;;
55469;SDS011;41334;47.872;16.384;2023-07-24T14:08:11;14.80;;;5.82;;
55469;SDS011;41334;47.872;16.384;2023-07-24T14:13:13;9.35;;;5.70;;
55469;SDS011;41334;47.872;16.384;2023-07-24T14:18:15;9.40;;;6.00;;
55469;SDS011;41334;47.872;16.384;2023-07-24T14:23:17;11.02;;;5.78;;
55469;SDS011;41334;47.872;16.384;2023-07-24T14:28:19;12.15;;;6.32;;
55469;SDS011;41334;47.872;16.384;2023-07-24T14:33:20;10.32;;;6.15;;
55469;SDS011;41334;47.872;16.384;2023-07-24T14:38:24;11.93;;;6.32;;
55469;SDS011;41334;47.872;16.384;2023-07-24T14:43:25;9.77;;;6.10;;
55469;SDS011;41334;47.872;16.384;2023-07-24T14:48:27;12.63;;;5.65;;
55469;SDS011;41334;47.872;16.384;2023-07-24T14:53:29;10.48;;;6.18;;
55469;SDS011;41334;47.872;16.384;2023-07-24T14:58:31;10.77;;;5.43;;
55469;SDS011;41334;47.872;16.384;2023-07-24T15:03:33;9.48;;;5.35;;
55469;SDS011;41334;47.872;16.384;2023-07-24T15:08:35;7.85;;;4.97;;
55469;SDS011;41334;47.872;16.384;2023-07-24T15:13:37;7.75;;;5.70;;
55469;SDS011;41334;47.872;16.384;2023-07-24T15:18:39;16.60;;;5.55;;
55469;SDS011;41334;47.872;16.384;2023-07-24T15:23:41;8.82;;;5.05;;
55469;SDS011;41334;47.872;16.384;2023-07-24T15:28:43;15.07;;;5.30;;
55469;SDS011;41334;47.872;16.384;2023-07-24T15:33:45;13.13;;;5.05;;
55469;SDS011;41334;47.872;16.384;2023-07-24T15:38:48;9.45;;;5.15;;
55469;SDS011;41334;47.872;16.384;2023-07-24T15:43:50;10.13;;;5.35;;
55469;SDS011;41334;47.872;16.384;2023-07-24T15:48:52;8.38;;;4.90;;
55469;SDS011;41334;47.872;16.384;2023-07-24T15:53:54;6.65;;;3.88;;
55469;SDS011;41334;47.872;16.384;2023-07-24T15:58:56;8.27;;;4.53;;
55469;SDS011;41334;47.872;16.384;2023-07-24T16:03:58;9.32;;;4.82;;
55469;SDS011;41334;47.872;16.384;2023-07-24T16:08:59;7.78;;;4.85;;
55469;SDS011;41334;47.872;16.384;2023-07-24T16:14:02;8.70;;;5.15;;
55469;SDS011;41334;47.872;16.384;2023-07-24T16:19:11;6.50;;;4.03;;
55469;SDS011;41334;47.872;16.384;2023-07-24T16:24:18;10.32;;;4.88;;
55469;SDS011;41334;47.872;16.384;2023-07-24T16:29:21;13.73;;;5.13;;
55469;SDS011;41334;47.872;16.384;2023-07-24T16:34:23;8.27;;;4.70;;
55469;SDS011;41334;47.872;16.384;2023-07-24T16:39:25;8.90;;;5.07;;
55469;SDS011;41334;47.872;16.384;2023-07-24T16:44:27;12.52;;;5.20;;
55469;SDS011;41334;47.872;16.384;2023-07-24T16:49:33;8.80;;;5.13;;
55469;SDS011;41334;47.872;16.384;2023-07-24T16:54:34;10.75;;;4.88;;
55469;SDS011;41334;47.872;16.384;2023-07-24T16:59:37;11.45;;;5.28;;
55469;SDS011;41334;47.872;16.384;2023-07-24T17:04:39;9.00;;;5.35;;
55469;SDS011;41334;47.872;16.384;2023-07-24T17:09:41;8.38;;;5.50;;
55469;SDS011;41334;47.872;16.384;2023-07-24T17:14:43;11.13;;;4.97;;
55469;SDS011;41334;47.872;16.384;2023-07-24T17:19:45;14.32;;;4.82;;
55469;SDS011;41334;47.872;16.384;2023-07-24T17:24:46;11.48;;;4.85;;
55469;SDS011;41334;47.872;16.384;2023-07-24T17:29:48;7.45;;;4.03;;
55469;SDS011;41334;47.872;16.384;2023-07-24T17:34:50;7.75;;;4.53;;
55469;SDS011;41334;47.872;16.384;2023-07-24T17:39:52;7.10;;;4.55;;
55469;SDS011;41334;47.872;16.384;2023-07-24T17:44:54;14.70;;;5.57;;
55469;SDS011;41334;47.872;16.384;2023-07-24T17:49:56;7.25;;;3.90;;
55469;SDS011;41334;47.872;16.384;2023-07-24T17:55:08;18.85;;;4.63;;
55469;SDS011;41334;47.872;16.384;2023-07-24T18:00:10;9.77;;;4.97;;
55469;SDS011;41334;47.872;16.384;2023-07-24T18:05:13;9.27;;;4.57;;
55469;SDS011;41334;47.872;16.384;2023-07-24T18:10:15;10.77;;;4.85;;
55469;SDS011;41334;47.872;16.384;2023-07-24T18:15:17;13.57;;;5.22;;
55469;SDS011;41334;47.872;16.384;2023-07-24T18:20:19;14.80;;;4.72;;
55469;SDS011;41334;47.872;16.384;2023-07-24T18:39:39;7.43;;;3.50;;
55469;SDS011;41334;47.872;16.384;2023-07-24T18:45:45;6.78;;;3.78;;
55469;SDS011;41334;47.872;16.384;2023-07-24T18:52:40;4.97;;;2.45;;
55469;SDS011;41334;47.872;16.384;2023-07-24T18:59:48;5.25;;;3.00;;
55469;SDS011;41334;47.872;16.384;2023-07-24T19:05:25;7.57;;;3.00;;
55469;SDS011;41334;47.872;16.384;2023-07-24T19:18:41;4.85;;;2.75;;
55469;SDS011;41334;47.872;16.384;2023-07-24T19:23:50;5.10;;;2.85;;
55469;SDS011;41334;47.872;16.384;2023-07-24T19:29:33;6.45;;;3.70;;
55469;SDS011;41334;47.872;16.384;2023-07-24T19:35:57;7.60;;;3.72;;
55469;SDS011;41334;47.872;16.384;2023-07-24T20:01:44;5.90;;;3.67;;
55469;SDS011;41334;47.872;16.384;2023-07-24T20:07:45;7.90;;;4.10;;
55469;SDS011;41334;47.872;16.384;2023-07-24T20:12:53;8.23;;;4.03;;
55469;SDS011;41334;47.872;16.384;2023-07-24T20:18:08;7.43;;;3.78;;
55469;SDS011;41334;47.872;16.384;2023-07-24T20:24:08;7.22;;;3.83;;
55469;SDS011;41334;47.872;16.384;2023-07-24T20:29:53;8.13;;;4.10;;
55469;SDS011;41334;47.872;16.384;2023-07-24T20:35:56;9.48;;;4.47;;
55469;SDS011;41334;47.872;16.384;2023-07-24T20:41:52;9.45;;;4.90;;
55469;SDS011;41334;47.872;16.384;2023-07-24T20:47:44;8.85;;;4.85;;
55469;SDS011;41334;47.872;16.384;2023-07-24T20:59:15;9.75;;;4.88;;
55469;SDS011;41334;47.872;16.384;2023-07-24T21:05:02;8.73;;;4.50;;
55469;SDS011;41334;47.872;16.384;2023-07-24T21:10:39;11.23;;;4.78;;
55469;SDS011;41334;47.872;16.384;2023-07-24T21:16:35;8.07;;;4.40;;
55469;SDS011;41334;47.872;16.384;2023-07-24T21:22:18;9.53;;;4.80;;
55469;SDS011;41334;47.872;16.384;2023-07-24T21:28:00;8.48;;;4.68;;
55469;SDS011;41334;47.872;16.384;2023-07-24T21:33:23;8.55;;;4.32;;
55469;SDS011;41334;47.872;16.384;2023-07-24T21:38:39;10.25;;;4.40;;
55469;SDS011;41334;47.872;16.384;2023-07-24T21:44:13;8.43;;;4.95;;
55469;SDS011;41334;47.872;16.384;2023-07-24T21:50:04;8.38;;;5.13;;
55469;SDS011;41334;47.872;16.384;2023-07-24T22:03:03;8.02;;;4.30;;
55469;SDS011;41334;47.872;16.384;2023-07-24T22:08:29;7.90;;;4.40;;
55469;SDS011;41334;47.872;16.384;2023-07-24T22:21:48;7.38;;;4.32;;
55469;SDS011;41334;47.872;16.384;2023-07-24T22:26:53;10.20;;;5.22;;
55469;SDS011;41334;47.872;16.384;2023-07-24T22:32:04;8.80;;;4.55;;
55469;SDS011;41334;47.872;16.384;2023-07-24T22:37:09;7.47;;;4.28;;
55469;SDS011;41334;47.872;16.384;2023-07-24T22:42:19;9.43;;;5.20;;
55469;SDS011;41334;47.872;16.384;2023-07-24T22:47:24;9.70;;;4.90;;
55469;SDS011;41334;47.872;16.384;2023-07-24T22:52:26;7.53;;;4.38;;
55469;SDS011;41334;47.872;16.384;2023-07-24T23:03:58;8.95;;;4.57;;
55469;SDS011;41334;47.872;16.384;2023-07-24T23:10:09;10.25;;;4.40;;
55469;SDS011;41334;47.872;16.384;2023-07-24T23:22:20;7.15;;;4.53;;
55469;SDS011;41334;47.872;16.384;2023-07-24T23:28:08;15.00;;;5.35;;
55469;SDS011;41334;47.872;16.384;2023-07-24T23:40:17;8.27;;;4.80;;
55469;SDS011;41334;47.872;16.384;2023-07-24T23:45:20;8.57;;;5.15;;
55469;SDS011;41334;47.872;16.384;2023-07-24T23:50:22;10.95;;;4.82;;
55469;SDS011;41334;47.872;16.384;2023-07-24T23:55:24;10.00;;;4.65;;
